sensor_id;sensor_type;location;lat;lon;timestamp;P1;durP1;ratioP1;P2;durP2;ratioP2
21825;SDS011;11075;47.944;11.776;2023-05-07T00:02:24;7.47;;;6.20;;
21825;SDS011;11075;47.944;11.776;2023-05-07T00:04:52;7.43;;;6.37;;
21825;SDS011;11075;47.944;11.776;2023-05-07T00:07:19;10.23;;;5.67;;
21825;SDS011;11075;47.944;11.776;2023-05-07T00:09:46;7.97;;;5.90;;
21825;SDS011;11075;47.944;11.776;2023-05-07T00:12:12;7.80;;;5.70;;
21825;SDS011;11075;47.944;11.776;2023-05-07T00:14:40;10.97;;;6.37;;
21825;SDS011;11075;47.944;11.776;2023-05-07T00:17:07;10.20;;;6.43;;
21825;SDS011;11075;47.944;11.776;2023-05-07T00:19:34;8.13;;;6.73;;
21825;SDS011;11075;47.944;11.776;2023-05-07T00:22:01;8.27;;;6.93;;
21825;SDS011;11075;47.944;11.776;2023-05-07T00:24:27;9.43;;;6.80;;
21825;SDS011;11075;47.944;11.776;2023-05-07T00:26:54;11.93;;;7.53;;
21825;SDS011;11075;47.944;11.776;2023-05-07T00:29:21;13.27;;;7.43;;
21825;SDS011;11075;47.944;11.776;2023-05-07T00:31:49;8.63;;;6.67;;
21825;SDS011;11075;47.944;11.776;2023-05-07T00:34:16;9.57;;;6.03;;
21825;SDS011;11075;47.944;11.776;2023-05-07T00:36:44;9.43;;;6.57;;
21825;SDS011;11075;47.944;11.776;2023-05-07T00:39:10;11.80;;;6.33;;
21825;SDS011;11075;47.944;11.776;2023-05-07T00:41:37;8.90;;;6.17;;
21825;SDS011;11075;47.944;11.776;2023-05-07T00:44:04;7.07;;;5.67;;
21825;SDS011;11075;47.944;11.776;2023-05-07T00:46:32;10.10;;;5.53;;
21825;SDS011;11075;47.944;11.776;2023-05-07T00:48:59;9.30;;;6.53;;
21825;SDS011;11075;47.944;11.776;2023-05-07T00:51:27;8.93;;;5.80;;
21825;SDS011;11075;47.944;11.776;2023-05-07T00:53:55;9.53;;;6.03;;
21825;SDS011;11075;47.944;11.776;2023-05-07T00:56:22;7.83;;;6.10;;
21825;SDS011;11075;47.944;11.776;2023-05-07T00:58:50;7.40;;;5.70;;
21825;SDS011;11075;47.944;11.776;2023-05-07T01:01:17;6.93;;;6.23;;
21825;SDS011;11075;47.944;11.776;2023-05-07T01:03:44;9.77;;;6.20;;
21825;SDS011;11075;47.944;11.776;2023-05-07T01:06:12;8.20;;;6.10;;
21825;SDS011;11075;47.944;11.776;2023-05-07T01:08:43;9.40;;;6.93;;
21825;SDS011;11075;47.944;11.776;2023-05-07T01:11:11;10.70;;;6.50;;
21825;SDS011;11075;47.944;11.776;2023-05-07T01:13:38;7.43;;;6.00;;
21825;SDS011;11075;47.944;11.776;2023-05-07T01:16:06;9.77;;;7.10;;
21825;SDS011;11075;47.944;11.776;2023-05-07T01:18:36;9.90;;;6.40;;
21825;SDS011;11075;47.944;11.776;2023-05-07T01:21:04;7.77;;;5.67;;
21825;SDS011;11075;47.944;11.776;2023-05-07T01:23:31;6.57;;;5.73;;
21825;SDS011;11075;47.944;11.776;2023-05-07T01:26:00;6.73;;;5.93;;
21825;SDS011;11075;47.944;11.776;2023-05-07T01:28:28;10.40;;;5.80;;
21825;SDS011;11075;47.944;11.776;2023-05-07T01:31:00;7.10;;;5.43;;
21825;SDS011;11075;47.944;11.776;2023-05-07T01:33:32;8.60;;;5.93;;
21825;SDS011;11075;47.944;11.776;2023-05-07T01:36:01;7.10;;;5.87;;
21825;SDS011;11075;47.944;11.776;2023-05-07T01:38:33;7.83;;;6.23;;
21825;SDS011;11075;47.944;11.776;2023-05-07T01:41:01;9.60;;;6.57;;
21825;SDS011;11075;47.944;11.776;2023-05-07T01:43:29;7.30;;;6.37;;
21825;SDS011;11075;47.944;11.776;2023-05-07T01:45:57;9.47;;;6.60;;
21825;SDS011;11075;47.944;11.776;2023-05-07T01:48:25;10.60;;;5.90;;
21825;SDS011;11075;47.944;11.776;2023-05-07T01:50:52;8.00;;;5.60;;
21825;SDS011;11075;47.944;11.776;2023-05-07T01:53:20;6.93;;;5.33;;
21825;SDS011;11075;47.944;11.776;2023-05-07T01:55:47;8.73;;;5.60;;
21825;SDS011;11075;47.944;11.776;2023-05-07T01:58:14;8.43;;;5.37;;
21825;SDS011;11075;47.944;11.776;2023-05-07T02:00:41;8.13;;;6.23;;
21825;SDS011;11075;47.944;11.776;2023-05-07T02:03:08;8.10;;;6.10;;
21825;SDS011;11075;47.944;11.776;2023-05-07T02:05:45;10.93;;;6.67;;
21825;SDS011;11075;47.944;11.776;2023-05-07T02:08:28;16.53;;;5.90;;
21825;SDS011;11075;47.944;11.776;2023-05-07T02:10:57;7.53;;;5.63;;
21825;SDS011;11075;47.944;11.776;2023-05-07T02:13:25;7.97;;;5.93;;
21825;SDS011;11075;47.944;11.776;2023-05-07T02:15:53;10.40;;;6.20;;
21825;SDS011;11075;47.944;11.776;2023-05-07T02:18:22;9.40;;;6.07;;
21825;SDS011;11075;47.944;11.776;2023-05-07T02:20:49;6.40;;;5.77;;
21825;SDS011;11075;47.944;11.776;2023-05-07T02:23:16;11.93;;;5.90;;
21825;SDS011;11075;47.944;11.776;2023-05-07T02:25:43;9.20;;;6.67;;
21825;SDS011;11075;47.944;11.776;2023-05-07T02:28:11;7.47;;;6.37;;
21825;SDS011;11075;47.944;11.776;2023-05-07T02:30:45;8.20;;;6.40;;
21825;SDS011;11075;47.944;11.776;2023-05-07T02:33:11;9.03;;;6.23;;
21825;SDS011;11075;47.944;11.776;2023-05-07T02:35:40;7.33;;;6.00;;
21825;SDS011;11075;47.944;11.776;2023-05-07T02:38:08;7.87;;;6.07;;
21825;SDS011;11075;47.944;11.776;2023-05-07T02:40:38;9.33;;;6.43;;
21825;SDS011;11075;47.944;11.776;2023-05-07T02:43:06;9.17;;;5.93;;
21825;SDS011;11075;47.944;11.776;2023-05-07T02:45:33;8.77;;;6.80;;
21825;SDS011;11075;47.944;11.776;2023-05-07T02:48:01;7.73;;;6.10;;
21825;SDS011;11075;47.944;11.776;2023-05-07T02:50:28;6.17;;;5.37;;
21825;SDS011;11075;47.944;11.776;2023-05-07T02:52:56;6.13;;;5.50;;
21825;SDS011;11075;47.944;11.776;2023-05-07T02:55:23;8.13;;;5.00;;
21825;SDS011;11075;47.944;11.776;2023-05-07T02:57:50;6.50;;;5.10;;
21825;SDS011;11075;47.944;11.776;2023-05-07T03:00:17;7.30;;;5.20;;
21825;SDS011;11075;47.944;11.776;2023-05-07T03:02:57;6.20;;;4.80;;
21825;SDS011;11075;47.944;11.776;2023-05-07T03:05:23;5.83;;;5.10;;
21825;SDS011;11075;47.944;11.776;2023-05-07T03:07:50;6.10;;;5.33;;
21825;SDS011;11075;47.944;11.776;2023-05-07T03:10:17;5.67;;;4.90;;
21825;SDS011;11075;47.944;11.776;2023-05-07T03:12:45;10.10;;;5.20;;
21825;SDS011;11075;47.944;11.776;2023-05-07T03:15:15;6.80;;;5.07;;
21825;SDS011;11075;47.944;11.776;2023-05-07T03:17:42;8.87;;;5.23;;
21825;SDS011;11075;47.944;11.776;2023-05-07T03:20:09;6.37;;;4.77;;
21825;SDS011;11075;47.944;11.776;2023-05-07T03:22:38;6.20;;;4.97;;
21825;SDS011;11075;47.944;11.776;2023-05-07T03:25:06;7.13;;;5.07;;
21825;SDS011;11075;47.944;11.776;2023-05-07T03:27:34;7.00;;;4.97;;
21825;SDS011;11075;47.944;11.776;2023-05-07T03:30:01;7.70;;;5.00;;
21825;SDS011;11075;47.944;11.776;2023-05-07T03:32:28;6.30;;;5.03;;
21825;SDS011;11075;47.944;11.776;2023-05-07T03:34:54;6.87;;;5.23;;
21825;SDS011;11075;47.944;11.776;2023-05-07T03:37:22;5.83;;;5.10;;
21825;SDS011;11075;47.944;11.776;2023-05-07T03:39:49;7.30;;;5.00;;
21825;SDS011;11075;47.944;11.776;2023-05-07T03:42:17;8.17;;;4.93;;
21825;SDS011;11075;47.944;11.776;2023-05-07T03:44:47;7.20;;;5.30;;
21825;SDS011;11075;47.944;11.776;2023-05-07T03:47:14;8.30;;;5.13;;
21825;SDS011;11075;47.944;11.776;2023-05-07T03:49:41;6.90;;;4.50;;
21825;SDS011;11075;47.944;11.776;2023-05-07T03:52:08;4.80;;;4.20;;
21825;SDS011;11075;47.944;11.776;2023-05-07T03:54:34;6.17;;;5.30;;
21825;SDS011;11075;47.944;11.776;2023-05-07T03:57:01;5.53;;;5.00;;
21825;SDS011;11075;47.944;11.776;2023-05-07T03:59:28;7.43;;;5.10;;
21825;SDS011;11075;47.944;11.776;2023-05-07T04:01:56;7.67;;;5.40;;
21825;SDS011;11075;47.944;11.776;2023-05-07T04:04:24;5.67;;;5.00;;
21825;SDS011;11075;47.944;11.776;2023-05-07T04:06:51;5.93;;;5.13;;
21825;SDS011;11075;47.944;11.776;2023-05-07T04:09:20;7.50;;;4.63;;
21825;SDS011;11075;47.944;11.776;2023-05-07T04:11:47;5.40;;;4.73;;
21825;SDS011;11075;47.944;11.776;2023-05-07T04:14:14;11.00;;;5.73;;
21825;SDS011;11075;47.944;11.776;2023-05-07T04:16:41;8.00;;;6.00;;
21825;SDS011;11075;47.944;11.776;2023-05-07T04:19:08;7.83;;;4.93;;
21825;SDS011;11075;47.944;11.776;2023-05-07T04:21:38;10.60;;;5.47;;
21825;SDS011;11075;47.944;11.776;2023-05-07T04:24:04;11.77;;;4.90;;
21825;SDS011;11075;47.944;11.776;2023-05-07T04:26:32;7.03;;;4.57;;
21825;SDS011;11075;47.944;11.776;2023-05-07T04:28:59;8.60;;;4.80;;
21825;SDS011;11075;47.944;11.776;2023-05-07T04:31:31;5.13;;;4.63;;
21825;SDS011;11075;47.944;11.776;2023-05-07T04:33:58;8.33;;;5.63;;
21825;SDS011;11075;47.944;11.776;2023-05-07T04:36:25;5.00;;;4.50;;
21825;SDS011;11075;47.944;11.776;2023-05-07T04:39:00;5.50;;;4.80;;
21825;SDS011;11075;47.944;11.776;2023-05-07T04:41:29;8.60;;;4.50;;
21825;SDS011;11075;47.944;11.776;2023-05-07T04:43:57;7.60;;;4.60;;
21825;SDS011;11075;47.944;11.776;2023-05-07T04:46:28;5.87;;;5.27;;
21825;SDS011;11075;47.944;11.776;2023-05-07T04:48:56;6.90;;;6.20;;
21825;SDS011;11075;47.944;11.776;2023-05-07T04:51:23;8.43;;;5.87;;
21825;SDS011;11075;47.944;11.776;2023-05-07T04:53:50;9.33;;;4.43;;
21825;SDS011;11075;47.944;11.776;2023-05-07T04:56:17;7.80;;;5.07;;
21825;SDS011;11075;47.944;11.776;2023-05-07T04:58:45;7.37;;;5.20;;
21825;SDS011;11075;47.944;11.776;2023-05-07T05:01:14;7.00;;;4.67;;
21825;SDS011;11075;47.944;11.776;2023-05-07T05:03:41;6.33;;;4.70;;
21825;SDS011;11075;47.944;11.776;2023-05-07T05:06:08;5.07;;;4.57;;
21825;SDS011;11075;47.944;11.776;2023-05-07T05:08:36;4.77;;;4.27;;
21825;SDS011;11075;47.944;11.776;2023-05-07T05:11:03;6.23;;;4.37;;
21825;SDS011;11075;47.944;11.776;2023-05-07T05:13:33;7.20;;;4.90;;
21825;SDS011;11075;47.944;11.776;2023-05-07T05:16:05;5.20;;;4.70;;
21825;SDS011;11075;47.944;11.776;2023-05-07T05:18:33;5.03;;;3.97;;
21825;SDS011;11075;47.944;11.776;2023-05-07T05:21:01;5.30;;;4.13;;
21825;SDS011;11075;47.944;11.776;2023-05-07T05:23:28;8.03;;;3.97;;
21825;SDS011;11075;47.944;11.776;2023-05-07T05:25:56;4.90;;;4.40;;
21825;SDS011;11075;47.944;11.776;2023-05-07T05:28:30;6.17;;;4.90;;
21825;SDS011;11075;47.944;11.776;2023-05-07T05:30:56;4.50;;;4.10;;
21825;SDS011;11075;47.944;11.776;2023-05-07T05:33:26;4.43;;;3.80;;
21825;SDS011;11075;47.944;11.776;2023-05-07T05:35:55;4.85;;;3.80;;
21825;SDS011;11075;47.944;11.776;2023-05-07T05:38:22;8.80;;;4.40;;
21825;SDS011;11075;47.944;11.776;2023-05-07T05:40:49;6.93;;;4.43;;
21825;SDS011;11075;47.944;11.776;2023-05-07T05:43:17;4.25;;;3.78;;
21825;SDS011;11075;47.944;11.776;2023-05-07T05:45:44;4.88;;;4.10;;
21825;SDS011;11075;47.944;11.776;2023-05-07T05:48:11;6.28;;;3.50;;
21825;SDS011;11075;47.944;11.776;2023-05-07T05:50:39;5.13;;;4.03;;
21825;SDS011;11075;47.944;11.776;2023-05-07T05:53:06;5.97;;;3.67;;
21825;SDS011;11075;47.944;11.776;2023-05-07T05:55:33;6.40;;;3.60;;
21825;SDS011;11075;47.944;11.776;2023-05-07T05:58:00;3.65;;;3.35;;
21825;SDS011;11075;47.944;11.776;2023-05-07T06:00:29;4.68;;;3.28;;
21825;SDS011;11075;47.944;11.776;2023-05-07T06:03:01;3.15;;;2.85;;
21825;SDS011;11075;47.944;11.776;2023-05-07T06:05:28;2.65;;;2.45;;
21825;SDS011;11075;47.944;11.776;2023-05-07T06:07:56;4.28;;;2.88;;
21825;SDS011;11075;47.944;11.776;2023-05-07T06:10:23;5.03;;;2.90;;
21825;SDS011;11075;47.944;11.776;2023-05-07T06:12:51;2.53;;;2.33;;
21825;SDS011;11075;47.944;11.776;2023-05-07T06:15:18;3.83;;;2.50;;
21825;SDS011;11075;47.944;11.776;2023-05-07T06:17:45;6.10;;;3.10;;
21825;SDS011;11075;47.944;11.776;2023-05-07T06:20:12;9.48;;;2.60;;
21825;SDS011;11075;47.944;11.776;2023-05-07T06:22:39;4.80;;;2.60;;
21825;SDS011;11075;47.944;11.776;2023-05-07T06:25:09;6.75;;;2.40;;
21825;SDS011;11075;47.944;11.776;2023-05-07T06:27:37;4.10;;;2.50;;
21825;SDS011;11075;47.944;11.776;2023-05-07T06:30:06;4.07;;;2.42;;
21825;SDS011;11075;47.944;11.776;2023-05-07T06:32:34;6.45;;;2.50;;
21825;SDS011;11075;47.944;11.776;2023-05-07T06:35:01;9.55;;;2.45;;
21825;SDS011;11075;47.944;11.776;2023-05-07T06:37:27;4.35;;;2.28;;
21825;SDS011;11075;47.944;11.776;2023-05-07T06:39:58;3.25;;;2.55;;
21825;SDS011;11075;47.944;11.776;2023-05-07T06:42:26;3.10;;;1.85;;
21825;SDS011;11075;47.944;11.776;2023-05-07T06:44:57;4.63;;;2.15;;
21825;SDS011;11075;47.944;11.776;2023-05-07T06:47:25;2.20;;;1.83;;
21825;SDS011;11075;47.944;11.776;2023-05-07T06:49:54;3.65;;;2.17;;
21825;SDS011;11075;47.944;11.776;2023-05-07T06:52:24;5.28;;;2.20;;
21825;SDS011;11075;47.944;11.776;2023-05-07T06:54:52;1.95;;;1.85;;
21825;SDS011;11075;47.944;11.776;2023-05-07T06:57:21;1.98;;;1.75;;
21825;SDS011;11075;47.944;11.776;2023-05-07T06:59:48;4.88;;;2.30;;
21825;SDS011;11075;47.944;11.776;2023-05-07T07:02:15;4.45;;;1.83;;
21825;SDS011;11075;47.944;11.776;2023-05-07T07:04:45;4.88;;;2.50;;
21825;SDS011;11075;47.944;11.776;2023-05-07T07:07:12;4.63;;;2.33;;
21825;SDS011;11075;47.944;11.776;2023-05-07T07:09:42;4.55;;;1.98;;
21825;SDS011;11075;47.944;11.776;2023-05-07T07:12:09;8.30;;;2.33;;
21825;SDS011;11075;47.944;11.776;2023-05-07T07:14:38;2.72;;;2.15;;
21825;SDS011;11075;47.944;11.776;2023-05-07T07:17:06;3.17;;;2.17;;
21825;SDS011;11075;47.944;11.776;2023-05-07T07:19:33;2.78;;;2.40;;
21825;SDS011;11075;47.944;11.776;2023-05-07T07:22:02;2.72;;;2.53;;
21825;SDS011;11075;47.944;11.776;2023-05-07T07:24:29;4.25;;;2.40;;
21825;SDS011;11075;47.944;11.776;2023-05-07T07:26:59;4.20;;;2.05;;
21825;SDS011;11075;47.944;11.776;2023-05-07T07:29:27;4.93;;;2.05;;
21825;SDS011;11075;47.944;11.776;2023-05-07T07:31:54;3.13;;;2.50;;
21825;SDS011;11075;47.944;11.776;2023-05-07T07:34:23;4.68;;;2.30;;
21825;SDS011;11075;47.944;11.776;2023-05-07T07:36:50;2.38;;;2.17;;
21825;SDS011;11075;47.944;11.776;2023-05-07T07:39:18;2.13;;;1.92;;
21825;SDS011;11075;47.944;11.776;2023-05-07T07:41:48;5.15;;;2.45;;
21825;SDS011;11075;47.944;11.776;2023-05-07T07:44:17;4.57;;;2.25;;
21825;SDS011;11075;47.944;11.776;2023-05-07T07:46:49;3.05;;;2.17;;
21825;SDS011;11075;47.944;11.776;2023-05-07T07:49:18;2.55;;;2.20;;
21825;SDS011;11075;47.944;11.776;2023-05-07T07:51:46;3.67;;;2.20;;
21825;SDS011;11075;47.944;11.776;2023-05-07T07:54:13;5.95;;;2.15;;
21825;SDS011;11075;47.944;11.776;2023-05-07T07:56:40;3.88;;;1.80;;
21825;SDS011;11075;47.944;11.776;2023-05-07T07:59:09;2.22;;;2.03;;
21825;SDS011;11075;47.944;11.776;2023-05-07T08:01:38;4.78;;;3.63;;
21825;SDS011;11075;47.944;11.776;2023-05-07T08:04:06;2.70;;;2.25;;
21825;SDS011;11075;47.944;11.776;2023-05-07T08:06:37;2.53;;;2.33;;
21825;SDS011;11075;47.944;11.776;2023-05-07T08:09:05;3.45;;;2.60;;
21825;SDS011;11075;47.944;11.776;2023-05-07T08:11:32;14.63;;;3.60;;
21825;SDS011;11075;47.944;11.776;2023-05-07T08:14:00;2.25;;;1.90;;
21825;SDS011;11075;47.944;11.776;2023-05-07T08:16:27;5.03;;;2.10;;
21825;SDS011;11075;47.944;11.776;2023-05-07T08:18:57;4.88;;;2.20;;
21825;SDS011;11075;47.944;11.776;2023-05-07T08:21:25;2.60;;;2.15;;
21825;SDS011;11075;47.944;11.776;2023-05-07T08:23:52;15.27;;;3.22;;
21825;SDS011;11075;47.944;11.776;2023-05-07T08:26:20;4.32;;;2.50;;
21825;SDS011;11075;47.944;11.776;2023-05-07T08:28:47;4.10;;;2.33;;
21825;SDS011;11075;47.944;11.776;2023-05-07T08:31:14;2.63;;;2.38;;
21825;SDS011;11075;47.944;11.776;2023-05-07T08:33:43;2.78;;;2.00;;
21825;SDS011;11075;47.944;11.776;2023-05-07T08:36:11;2.47;;;2.05;;
21825;SDS011;11075;47.944;11.776;2023-05-07T08:38:38;2.65;;;1.92;;
21825;SDS011;11075;47.944;11.776;2023-05-07T08:41:09;16.55;;;3.17;;
21825;SDS011;11075;47.944;11.776;2023-05-07T08:43:37;3.25;;;2.28;;
21825;SDS011;11075;47.944;11.776;2023-05-07T08:46:09;6.35;;;2.50;;
21825;SDS011;11075;47.944;11.776;2023-05-07T08:48:41;18.80;;;3.88;;
21825;SDS011;11075;47.944;11.776;2023-05-07T08:51:12;28.63;;;3.72;;
21825;SDS011;11075;47.944;11.776;2023-05-07T08:53:40;7.47;;;2.60;;
21825;SDS011;11075;47.944;11.776;2023-05-07T08:56:11;3.38;;;2.65;;
21825;SDS011;11075;47.944;11.776;2023-05-07T08:58:39;2.30;;;2.10;;
21825;SDS011;11075;47.944;11.776;2023-05-07T09:01:10;2.03;;;1.92;;
21825;SDS011;11075;47.944;11.776;2023-05-07T09:03:45;3.22;;;2.38;;
21825;SDS011;11075;47.944;11.776;2023-05-07T09:06:15;5.80;;;2.28;;
21825;SDS011;11075;47.944;11.776;2023-05-07T09:08:50;34.80;;;3.35;;
21825;SDS011;11075;47.944;11.776;2023-05-07T09:11:23;15.57;;;3.42;;
21825;SDS011;11075;47.944;11.776;2023-05-07T09:13:54;4.10;;;2.20;;
21825;SDS011;11075;47.944;11.776;2023-05-07T09:16:24;3.17;;;2.30;;
21825;SDS011;11075;47.944;11.776;2023-05-07T09:18:54;4.38;;;2.30;;
21825;SDS011;11075;47.944;11.776;2023-05-07T09:21:22;13.35;;;3.33;;
21825;SDS011;11075;47.944;11.776;2023-05-07T09:23:53;3.83;;;2.70;;
21825;SDS011;11075;47.944;11.776;2023-05-07T09:26:27;3.53;;;2.30;;
21825;SDS011;11075;47.944;11.776;2023-05-07T09:28:55;3.28;;;2.67;;
21825;SDS011;11075;47.944;11.776;2023-05-07T09:31:22;4.45;;;2.30;;
21825;SDS011;11075;47.944;11.776;2023-05-07T09:33:52;2.80;;;2.33;;
21825;SDS011;11075;47.944;11.776;2023-05-07T09:36:19;22.67;;;3.65;;
21825;SDS011;11075;47.944;11.776;2023-05-07T09:38:47;2.97;;;2.40;;
21825;SDS011;11075;47.944;11.776;2023-05-07T09:41:18;2.90;;;2.20;;
21825;SDS011;11075;47.944;11.776;2023-05-07T09:43:59;4.22;;;2.17;;
21825;SDS011;11075;47.944;11.776;2023-05-07T09:46:35;15.10;;;3.38;;
21825;SDS011;11075;47.944;11.776;2023-05-07T09:49:20;3.17;;;2.45;;
21825;SDS011;11075;47.944;11.776;2023-05-07T09:51:55;2.90;;;1.83;;
21825;SDS011;11075;47.944;11.776;2023-05-07T09:54:25;3.60;;;2.85;;
21825;SDS011;11075;47.944;11.776;2023-05-07T09:56:55;6.82;;;3.55;;
21825;SDS011;11075;47.944;11.776;2023-05-07T09:59:25;4.88;;;2.97;;
21825;SDS011;11075;47.944;11.776;2023-05-07T10:02:00;4.95;;;2.55;;
21825;SDS011;11075;47.944;11.776;2023-05-07T10:04:35;4.07;;;2.10;;
21825;SDS011;11075;47.944;11.776;2023-05-07T10:07:04;15.25;;;3.55;;
21825;SDS011;11075;47.944;11.776;2023-05-07T10:09:33;2.58;;;2.10;;
21825;SDS011;11075;47.944;11.776;2023-05-07T10:12:09;17.10;;;3.45;;
21825;SDS011;11075;47.944;11.776;2023-05-07T10:14:36;2.55;;;1.80;;
21825;SDS011;11075;47.944;11.776;2023-05-07T10:17:04;6.35;;;2.20;;
21825;SDS011;11075;47.944;11.776;2023-05-07T10:19:33;3.10;;;1.73;;
21825;SDS011;11075;47.944;11.776;2023-05-07T10:22:02;3.63;;;1.80;;
21825;SDS011;11075;47.944;11.776;2023-05-07T10:24:36;5.35;;;1.75;;
21825;SDS011;11075;47.944;11.776;2023-05-07T10:27:10;2.28;;;1.73;;
21825;SDS011;11075;47.944;11.776;2023-05-07T10:35:10;12.00;;;2.50;;
21825;SDS011;11075;47.944;11.776;2023-05-07T10:37:40;16.63;;;2.78;;
21825;SDS011;11075;47.944;11.776;2023-05-07T10:40:09;4.00;;;1.70;;
21825;SDS011;11075;47.944;11.776;2023-05-07T10:42:37;2.97;;;2.38;;
21825;SDS011;11075;47.944;11.776;2023-05-07T10:45:13;26.25;;;3.13;;
21825;SDS011;11075;47.944;11.776;2023-05-07T10:51:17;11.77;;;2.97;;
21825;SDS011;11075;47.944;11.776;2023-05-07T10:54:17;2.78;;;1.70;;
21825;SDS011;11075;47.944;11.776;2023-05-07T10:56:43;11.35;;;3.25;;
21825;SDS011;11075;47.944;11.776;2023-05-07T11:02:03;2.10;;;1.75;;
21825;SDS011;11075;47.944;11.776;2023-05-07T11:04:41;3.00;;;1.80;;
21825;SDS011;11075;47.944;11.776;2023-05-07T11:10:04;2.50;;;1.77;;
21825;SDS011;11075;47.944;11.776;2023-05-07T11:12:55;2.05;;;1.30;;
21825;SDS011;11075;47.944;11.776;2023-05-07T11:15:35;3.05;;;1.40;;
21825;SDS011;11075;47.944;11.776;2023-05-07T11:18:11;1.80;;;1.52;;
21825;SDS011;11075;47.944;11.776;2023-05-07T11:26:13;1.60;;;1.42;;
21825;SDS011;11075;47.944;11.776;2023-05-07T11:28:42;1.77;;;1.20;;
21825;SDS011;11075;47.944;11.776;2023-05-07T11:31:10;2.15;;;1.42;;
21825;SDS011;11075;47.944;11.776;2023-05-07T11:33:39;1.48;;;1.38;;
21825;SDS011;11075;47.944;11.776;2023-05-07T11:36:11;4.00;;;1.50;;
21825;SDS011;11075;47.944;11.776;2023-05-07T11:38:44;1.50;;;1.20;;
21825;SDS011;11075;47.944;11.776;2023-05-07T11:41:11;1.30;;;1.20;;
21825;SDS011;11075;47.944;11.776;2023-05-07T11:43:38;2.65;;;1.30;;
21825;SDS011;11075;47.944;11.776;2023-05-07T11:46:19;1.77;;;1.27;;
21825;SDS011;11075;47.944;11.776;2023-05-07T11:48:47;2.22;;;1.42;;
21825;SDS011;11075;47.944;11.776;2023-05-07T11:51:14;1.58;;;1.33;;
21825;SDS011;11075;47.944;11.776;2023-05-07T11:53:45;1.98;;;1.42;;
21825;SDS011;11075;47.944;11.776;2023-05-07T11:56:13;2.90;;;1.70;;
21825;SDS011;11075;47.944;11.776;2023-05-07T11:58:41;2.30;;;1.50;;
21825;SDS011;11075;47.944;11.776;2023-05-07T12:01:10;1.45;;;1.15;;
21825;SDS011;11075;47.944;11.776;2023-05-07T12:03:41;2.58;;;1.23;;
21825;SDS011;11075;47.944;11.776;2023-05-07T12:06:10;1.85;;;1.30;;
21825;SDS011;11075;47.944;11.776;2023-05-07T12:08:39;2.67;;;1.45;;
21825;SDS011;11075;47.944;11.776;2023-05-07T12:11:08;1.77;;;1.20;;
21825;SDS011;11075;47.944;11.776;2023-05-07T12:13:37;1.73;;;1.10;;
21825;SDS011;11075;47.944;11.776;2023-05-07T12:16:05;2.60;;;1.58;;
21825;SDS011;11075;47.944;11.776;2023-05-07T12:18:36;4.07;;;1.75;;
21825;SDS011;11075;47.944;11.776;2023-05-07T12:21:04;3.17;;;1.42;;
21825;SDS011;11075;47.944;11.776;2023-05-07T12:23:33;2.83;;;1.52;;
21825;SDS011;11075;47.944;11.776;2023-05-07T12:26:02;3.80;;;1.50;;
21825;SDS011;11075;47.944;11.776;2023-05-07T12:28:36;1.58;;;1.40;;
21825;SDS011;11075;47.944;11.776;2023-05-07T12:31:05;2.83;;;1.48;;
21825;SDS011;11075;47.944;11.776;2023-05-07T12:33:32;2.97;;;1.10;;
21825;SDS011;11075;47.944;11.776;2023-05-07T12:36:02;2.28;;;1.23;;
21825;SDS011;11075;47.944;11.776;2023-05-07T12:38:35;4.05;;;1.58;;
21825;SDS011;11075;47.944;11.776;2023-05-07T12:41:03;3.50;;;1.50;;
21825;SDS011;11075;47.944;11.776;2023-05-07T12:43:31;2.55;;;1.35;;
21825;SDS011;11075;47.944;11.776;2023-05-07T12:45:59;3.03;;;1.50;;
21825;SDS011;11075;47.944;11.776;2023-05-07T12:48:28;2.65;;;1.50;;
21825;SDS011;11075;47.944;11.776;2023-05-07T12:50:55;4.32;;;1.92;;
21825;SDS011;11075;47.944;11.776;2023-05-07T12:53:24;5.68;;;1.77;;
21825;SDS011;11075;47.944;11.776;2023-05-07T12:55:53;2.17;;;1.80;;
21825;SDS011;11075;47.944;11.776;2023-05-07T12:58:24;3.35;;;1.70;;
21825;SDS011;11075;47.944;11.776;2023-05-07T13:00:53;4.13;;;2.00;;
21825;SDS011;11075;47.944;11.776;2023-05-07T13:03:30;2.40;;;1.73;;
21825;SDS011;11075;47.944;11.776;2023-05-07T13:06:00;2.50;;;1.60;;
21825;SDS011;11075;47.944;11.776;2023-05-07T13:08:29;2.78;;;1.90;;
21825;SDS011;11075;47.944;11.776;2023-05-07T13:11:00;2.70;;;1.92;;
21825;SDS011;11075;47.944;11.776;2023-05-07T13:13:31;4.70;;;1.80;;
21825;SDS011;11075;47.944;11.776;2023-05-07T13:16:00;2.10;;;1.90;;
21825;SDS011;11075;47.944;11.776;2023-05-07T13:18:31;1.88;;;1.77;;
21825;SDS011;11075;47.944;11.776;2023-05-07T13:20:59;2.90;;;2.00;;
21825;SDS011;11075;47.944;11.776;2023-05-07T13:23:27;3.45;;;2.10;;
21825;SDS011;11075;47.944;11.776;2023-05-07T13:25:55;4.43;;;2.30;;
21825;SDS011;11075;47.944;11.776;2023-05-07T13:28:23;3.55;;;1.70;;
21825;SDS011;11075;47.944;11.776;2023-05-07T13:30:50;2.90;;;2.33;;
21825;SDS011;11075;47.944;11.776;2023-05-07T13:33:21;4.03;;;2.33;;
21825;SDS011;11075;47.944;11.776;2023-05-07T13:35:48;3.83;;;2.80;;
21825;SDS011;11075;47.944;11.776;2023-05-07T13:38:15;3.75;;;2.47;;
21825;SDS011;11075;47.944;11.776;2023-05-07T13:40:42;2.78;;;2.50;;
21825;SDS011;11075;47.944;11.776;2023-05-07T13:43:09;2.67;;;2.38;;
21825;SDS011;11075;47.944;11.776;2023-05-07T13:45:37;2.47;;;2.08;;
21825;SDS011;11075;47.944;11.776;2023-05-07T13:48:04;4.22;;;2.35;;
21825;SDS011;11075;47.944;11.776;2023-05-07T13:50:31;2.90;;;2.42;;
21825;SDS011;11075;47.944;11.776;2023-05-07T13:52:58;2.50;;;2.17;;
21825;SDS011;11075;47.944;11.776;2023-05-07T13:55:25;4.70;;;2.25;;
21825;SDS011;11075;47.944;11.776;2023-05-07T13:57:59;4.43;;;2.63;;
21825;SDS011;11075;47.944;11.776;2023-05-07T14:00:27;3.03;;;2.33;;
21825;SDS011;11075;47.944;11.776;2023-05-07T14:02:56;2.65;;;2.28;;
21825;SDS011;11075;47.944;11.776;2023-05-07T14:05:24;3.53;;;2.22;;
21825;SDS011;11075;47.944;11.776;2023-05-07T14:07:51;2.53;;;2.20;;
21825;SDS011;11075;47.944;11.776;2023-05-07T14:10:18;3.30;;;2.20;;
21825;SDS011;11075;47.944;11.776;2023-05-07T14:12:46;3.92;;;2.13;;
21825;SDS011;11075;47.944;11.776;2023-05-07T14:15:14;2.30;;;2.05;;
21825;SDS011;11075;47.944;11.776;2023-05-07T14:17:43;2.60;;;2.40;;
21825;SDS011;11075;47.944;11.776;2023-05-07T14:20:11;2.60;;;2.40;;
21825;SDS011;11075;47.944;11.776;2023-05-07T14:22:39;3.53;;;2.50;;
21825;SDS011;11075;47.944;11.776;2023-05-07T14:25:06;2.88;;;2.58;;
21825;SDS011;11075;47.944;11.776;2023-05-07T14:27:33;2.28;;;2.17;;
21825;SDS011;11075;47.944;11.776;2023-05-07T14:30:00;3.90;;;2.45;;
21825;SDS011;11075;47.944;11.776;2023-05-07T14:32:27;3.10;;;2.35;;
21825;SDS011;11075;47.944;11.776;2023-05-07T14:34:54;3.58;;;2.33;;
21825;SDS011;11075;47.944;11.776;2023-05-07T14:37:21;2.47;;;2.28;;
21825;SDS011;11075;47.944;11.776;2023-05-07T14:39:47;3.20;;;2.42;;
21825;SDS011;11075;47.944;11.776;2023-05-07T14:42:16;3.38;;;2.63;;
21825;SDS011;11075;47.944;11.776;2023-05-07T14:44:45;4.30;;;2.35;;
21825;SDS011;11075;47.944;11.776;2023-05-07T14:47:14;2.90;;;2.70;;
21825;SDS011;11075;47.944;11.776;2023-05-07T14:49:44;5.30;;;2.47;;
21825;SDS011;11075;47.944;11.776;2023-05-07T14:52:11;3.72;;;2.53;;
21825;SDS011;11075;47.944;11.776;2023-05-07T14:54:38;2.45;;;2.15;;
21825;SDS011;11075;47.944;11.776;2023-05-07T14:57:05;2.95;;;2.40;;
21825;SDS011;11075;47.944;11.776;2023-05-07T14:59:33;2.75;;;2.30;;
21825;SDS011;11075;47.944;11.776;2023-05-07T15:02:00;3.47;;;2.25;;
21825;SDS011;11075;47.944;11.776;2023-05-07T15:04:32;3.33;;;2.40;;